createdAt,value
2022-12-15T00:00:17.503Z,94406.00
2022-12-15T00:03:03.065Z,94400.59
2022-12-15T00:05:50.226Z,94405.41
2022-12-15T00:08:35.770Z,94406.34
2022-12-15T00:11:21.615Z,94406.63
2022-12-15T00:14:07.004Z,94405.66
2022-12-15T00:16:52.350Z,94415.13
2022-12-15T00:19:37.892Z,94417.59
2022-12-15T00:22:23.594Z,94415.03
2022-12-15T00:25:08.912Z,94425.09
2022-12-15T00:27:54.123Z,94429.09
2022-12-15T00:30:39.532Z,94436.38
2022-12-15T00:33:31.389Z,94429.84
2022-12-15T00:36:17.424Z,94429.06
2022-12-15T00:38:44.356Z,94428.06
2022-12-15T00:41:15.322Z,94435.59
2022-12-15T00:43:41.891Z,94435.53
2022-12-15T00:46:27.161Z,94434.91
2022-12-15T00:48:53.986Z,94437.44
2022-12-15T00:51:20.748Z,94441.88
2022-12-15T00:54:06.154Z,94440.47
2022-12-15T00:56:51.454Z,94436.63
2022-12-15T00:59:36.684Z,94437.81
2022-12-15T01:02:22.107Z,94440.81
2022-12-15T01:05:07.472Z,94447.97
2022-12-15T01:07:52.776Z,94452.44
2022-12-15T01:10:38.038Z,94448.97
2022-12-15T01:13:23.921Z,94441.13
2022-12-15T01:16:09.315Z,94438.31
2022-12-15T01:18:54.580Z,94438.28
2022-12-15T01:21:24.735Z,94451.09
2022-12-15T01:23:52.007Z,94462.34
2022-12-15T01:26:18.452Z,94457.06
2022-12-15T01:28:44.894Z,94459.41
2022-12-15T01:31:12.366Z,94461.19
2022-12-15T01:33:39.661Z,94469.00
2022-12-15T01:36:06.612Z,94454.97
2022-12-15T01:38:33.159Z,94459.25
2022-12-15T01:41:03.690Z,94466.47
2022-12-15T01:43:33.874Z,94463.13
2022-12-15T01:46:02.327Z,94473.78
2022-12-15T01:48:28.750Z,94470.91
2022-12-15T01:51:10.236Z,94470.50
2022-12-15T01:53:43.158Z,94465.84
2022-12-15T01:56:11.643Z,94475.44
2022-12-15T01:58:40.884Z,94474.34
2022-12-15T02:01:07.789Z,94478.75
2022-12-15T02:03:35.057Z,94465.00
2022-12-15T02:06:02.856Z,94473.13
2022-12-15T02:08:30.075Z,94476.16
2022-12-15T02:10:59.772Z,94467.19
2022-12-15T02:13:39.566Z,94467.16
2022-12-15T02:16:15.490Z,94463.66
2022-12-15T02:18:48.016Z,94465.59
2022-12-15T02:21:20.779Z,94460.56
2022-12-15T02:23:55.573Z,94465.66
2022-12-15T02:26:57.739Z,94465.53
2022-12-15T02:29:42.194Z,94470.25
2022-12-15T02:32:10.418Z,94477.56
2022-12-15T02:34:39.843Z,94471.50
2022-12-15T02:37:08.875Z,94484.41
2022-12-15T02:39:35.350Z,94488.81
2022-12-15T02:42:01.773Z,94489.22
2022-12-15T02:44:36.399Z,94486.63
2022-12-15T02:47:17.724Z,94494.28
2022-12-15T02:50:04.064Z,94496.72
2022-12-15T02:52:49.374Z,94497.81
2022-12-15T02:55:20.030Z,94497.91
2022-12-15T02:58:01.315Z,94497.91
2022-12-15T03:00:28.470Z,94503.22
2022-12-15T03:02:55.769Z,94493.94
2022-12-15T03:05:24.201Z,94499.28
2022-12-15T03:07:51.531Z,94489.50
2022-12-15T03:10:18.811Z,94487.16
2022-12-15T03:12:45.324Z,94501.72
2022-12-15T03:15:11.963Z,94503.50
2022-12-15T03:17:38.648Z,94500.88
2022-12-15T03:20:05.717Z,94506.00
2022-12-15T03:22:32.334Z,94511.44
2022-12-15T03:24:58.743Z,94518.59
2022-12-15T03:27:25.190Z,94519.41
2022-12-15T03:29:51.633Z,94526.97
2022-12-15T03:32:18.172Z,94525.88
2022-12-15T03:34:45.145Z,94525.81
2022-12-15T03:37:11.660Z,94520.81
2022-12-15T03:39:38.101Z,94522.25
2022-12-15T03:42:04.581Z,94519.06
2022-12-15T03:44:31.047Z,94530.19
2022-12-15T03:47:02.929Z,94532.03
2022-12-15T03:49:30.096Z,94528.59
2022-12-15T03:51:56.517Z,94522.97
2022-12-15T03:54:22.926Z,94532.97
2022-12-15T03:56:50.094Z,94542.31
2022-12-15T03:59:16.487Z,94541.25
2022-12-15T04:01:45.836Z,94550.03
2022-12-15T04:04:12.365Z,94545.88
2022-12-15T04:06:38.799Z,94541.41
2022-12-15T04:09:05.201Z,94544.34
2022-12-15T04:11:31.626Z,94549.41
2022-12-15T04:13:58.044Z,94549.50
2022-12-15T04:16:24.737Z,94544.91
2022-12-15T04:19:11.186Z,94545.41
2022-12-15T04:21:37.613Z,94545.31
2022-12-15T04:24:22.760Z,94549.53
2022-12-15T04:27:08.100Z,94539.84
2022-12-15T04:29:53.711Z,94544.34
2022-12-15T04:32:38.548Z,94534.09
2022-12-15T04:35:23.754Z,94535.16
2022-12-15T04:38:08.596Z,94547.03
2022-12-15T04:40:53.540Z,94533.09
2022-12-15T04:43:38.375Z,94537.53
2022-12-15T04:46:23.590Z,94551.53
2022-12-15T04:49:08.805Z,94545.13
2022-12-15T04:51:53.810Z,94534.16
2022-12-15T04:54:39.020Z,94551.13
2022-12-15T04:57:24.128Z,94568.06
2022-12-15T05:00:09.514Z,94577.50
2022-12-15T05:02:54.682Z,94582.00
2022-12-15T05:05:40.129Z,94567.50
2022-12-15T05:08:25.475Z,94572.56
2022-12-15T05:11:10.810Z,94571.31
2022-12-15T05:13:56.165Z,94564.38
2022-12-15T05:16:41.458Z,94555.28
2022-12-15T05:19:26.727Z,94554.94
2022-12-15T05:22:11.997Z,94566.88
2022-12-15T05:24:57.256Z,94568.53
2022-12-15T05:27:42.478Z,94566.03
2022-12-15T05:30:27.950Z,94562.44
2022-12-15T05:32:54.536Z,94571.22
2022-12-15T05:35:21.111Z,94570.25
2022-12-15T05:37:47.498Z,94575.47
2022-12-15T05:40:13.962Z,94575.44
2022-12-15T05:42:40.469Z,94580.63
2022-12-15T05:45:07.097Z,94579.72
2022-12-15T05:47:33.541Z,94586.13
2022-12-15T05:49:59.955Z,94580.16
2022-12-15T05:52:26.383Z,94584.34
2022-12-15T05:54:52.825Z,94590.56
2022-12-15T05:57:19.267Z,94592.22
2022-12-15T05:59:45.710Z,94594.06
2022-12-15T06:02:12.265Z,94603.63
2022-12-15T06:04:38.812Z,94605.53
2022-12-15T06:07:07.677Z,94605.16
2022-12-15T06:09:34.076Z,94593.34
2022-12-15T06:12:00.489Z,94589.03
2022-12-15T06:14:26.987Z,94588.22
2022-12-15T06:16:53.529Z,94581.28
2022-12-15T06:19:20.887Z,94587.16
2022-12-15T06:21:47.734Z,94579.91
2022-12-15T06:24:14.220Z,94574.81
2022-12-15T06:26:40.868Z,94579.72
2022-12-15T06:29:10.351Z,94577.06
2022-12-15T06:31:37.408Z,94597.53
2022-12-15T06:34:05.081Z,94601.66
2022-12-15T06:36:31.723Z,94590.63
2022-12-15T06:39:02.155Z,94590.56
2022-12-15T06:41:30.883Z,94592.34
2022-12-15T06:43:57.862Z,94581.41
2022-12-15T06:46:25.585Z,94574.00
2022-12-15T06:48:53.118Z,94573.00
2022-12-15T06:51:19.857Z,94573.69
2022-12-15T06:53:49.056Z,94569.72
2022-12-15T06:56:20.752Z,94574.78
2022-12-15T06:58:50.620Z,94576.59
2022-12-15T07:01:17.596Z,94590.03
2022-12-15T07:03:44.762Z,94597.88
2022-12-15T07:06:12.358Z,94595.81
2022-12-15T07:08:41.612Z,94602.06
2022-12-15T07:11:12.242Z,94579.19
2022-12-15T07:13:39.197Z,94591.84
2022-12-15T07:16:07.539Z,94600.34
2022-12-15T07:18:34.236Z,94583.13
2022-12-15T07:21:05.830Z,94595.31
2022-12-15T07:23:53.600Z,94591.84
2022-12-15T07:26:19.045Z,94606.00
2022-12-15T07:28:45.507Z,94614.66
2022-12-15T07:31:12.158Z,94619.00
2022-12-15T07:33:39.096Z,94611.44
2022-12-15T07:36:05.961Z,94611.22
2022-12-15T07:38:32.436Z,94608.53
2022-12-15T07:41:03.125Z,94615.47
2022-12-15T07:43:31.403Z,94624.97
2022-12-15T07:45:58.686Z,94621.38
2022-12-15T07:48:25.172Z,94624.00
2022-12-15T07:51:02.883Z,94638.50
2022-12-15T07:53:34.716Z,94636.16
2022-12-15T07:56:09.892Z,94647.84
2022-12-15T07:58:37.280Z,94652.09
2022-12-15T08:01:05.360Z,94647.75
2022-12-15T08:03:32.578Z,94648.63
2022-12-15T08:06:04.264Z,94652.88
2022-12-15T08:08:31.585Z,94666.66
2022-12-15T08:10:58.565Z,94679.03
2022-12-15T08:14:00.117Z,94678.84
2022-12-15T08:16:12.238Z,94685.59
2022-12-15T08:18:39.485Z,94681.16
2022-12-15T08:21:07.967Z,94675.31
2022-12-15T08:23:35.819Z,94675.66
2022-12-15T08:26:03.974Z,94680.69
2022-12-15T08:28:30.461Z,94679.16
2022-12-15T08:31:01.722Z,94683.41
2022-12-15T08:33:28.581Z,94684.88
2022-12-15T08:36:03.157Z,94681.56
2022-12-15T08:38:31.393Z,94676.44
2022-12-15T08:41:06.255Z,94670.63
2022-12-15T08:43:33.052Z,94671.09
2022-12-15T08:46:00.529Z,94662.28
2022-12-15T08:48:26.966Z,94658.06
2022-12-15T08:50:55.130Z,94642.00
2022-12-15T08:53:31.194Z,94646.19
2022-12-15T08:56:02.570Z,94644.66
2022-12-15T08:58:28.979Z,94639.75
2022-12-15T09:00:59.829Z,94642.22
2022-12-15T09:03:27.251Z,94649.50
2022-12-15T09:05:53.741Z,94644.28
2022-12-15T09:08:20.172Z,94649.53
2022-12-15T09:10:46.568Z,94642.38
2022-12-15T09:13:19.080Z,94668.16
2022-12-15T09:16:08.841Z,94669.19
2022-12-15T09:18:33.444Z,94670.38
2022-12-15T09:21:04.761Z,94676.88
2022-12-15T09:23:32.394Z,94685.13
2022-12-15T09:25:59.948Z,94692.84
2022-12-15T09:28:26.516Z,94689.09
2022-12-15T09:30:53.116Z,94698.44
2022-12-15T09:33:19.726Z,94695.75
2022-12-15T09:35:50.046Z,94683.00
2022-12-15T09:38:16.480Z,94677.38
2022-12-15T09:40:43.127Z,94667.28
2022-12-15T09:43:33.898Z,94647.63
2022-12-15T09:46:06.877Z,94646.19
2022-12-15T09:48:39.960Z,94651.59
2022-12-15T09:51:08.669Z,94654.25
2022-12-15T09:56:23.858Z,94639.03
2022-12-15T09:59:08.269Z,94644.16
2022-12-15T10:01:42.472Z,94635.53
2022-12-15T10:04:24.123Z,94632.91
2022-12-15T10:06:54.599Z,94635.94
2022-12-15T10:09:24.884Z,94634.53
2022-12-15T10:11:56.908Z,94632.88
2022-12-15T10:14:28.273Z,94644.97
2022-12-15T10:17:13.007Z,94647.66
2022-12-15T10:19:57.826Z,94659.72
2022-12-15T10:22:25.998Z,94646.81
2022-12-15T10:25:09.818Z,94648.75
2022-12-15T10:27:55.688Z,94649.53
2022-12-15T10:30:22.209Z,94647.72
2022-12-15T10:33:07.790Z,94639.59
2022-12-15T10:35:36.097Z,94638.69
2022-12-15T10:38:07.036Z,94630.25
2022-12-15T10:40:44.608Z,94639.41
2022-12-15T10:43:28.755Z,94631.84
2022-12-15T10:46:14.498Z,94631.16
2022-12-15T10:48:42.235Z,94652.09
2022-12-15T10:51:19.849Z,94660.47
2022-12-15T10:53:50.460Z,94645.13
2022-12-15T10:56:27.274Z,94653.19
2022-12-15T10:58:58.592Z,94657.16
2022-12-15T11:01:26.981Z,94654.66
2022-12-15T11:03:54.463Z,94630.31
2022-12-15T11:06:22.540Z,94635.88
2022-12-15T11:08:53.766Z,94632.38
2022-12-15T11:11:47.348Z,94616.28
2022-12-15T11:14:19.289Z,94631.44
2022-12-15T11:16:47.097Z,94630.81
2022-12-15T11:19:21.738Z,94615.03
2022-12-15T11:21:53.216Z,94609.94
2022-12-15T11:24:29.442Z,94600.66
2022-12-15T11:27:02.794Z,94591.59
2022-12-15T11:29:35.313Z,94595.56
2022-12-15T11:32:07.099Z,94580.84
2022-12-15T11:34:45.365Z,94579.03
2022-12-15T11:37:34.519Z,94563.00
2022-12-15T11:40:17.459Z,94544.75
2022-12-15T11:42:49.972Z,94544.38
2022-12-15T11:45:19.618Z,94537.47
2022-12-15T11:47:52.259Z,94528.72
2022-12-15T11:50:24.837Z,94529.78
2022-12-15T11:52:51.338Z,94528.66
2022-12-15T11:55:41.225Z,94522.94
2022-12-15T11:58:14.275Z,94518.94
2022-12-15T12:00:43.403Z,94508.75
2022-12-15T12:03:25.155Z,94510.06
2022-12-15T12:05:59.316Z,94509.25
2022-12-15T12:08:29.285Z,94502.41
2022-12-15T12:11:10.194Z,94510.50
2022-12-15T12:13:55.467Z,94512.94
2022-12-15T12:16:28.042Z,94501.84
2022-12-15T12:18:57.886Z,94506.78
2022-12-15T12:21:30.005Z,94518.94
2022-12-15T12:24:00.607Z,94513.19
2022-12-15T12:26:40.003Z,94511.41
2022-12-15T12:29:18.575Z,94502.22
2022-12-15T12:31:50.754Z,94502.31
2022-12-15T12:34:29.728Z,94510.81
2022-12-15T12:37:00.907Z,94516.31
2022-12-15T12:39:28.123Z,94516.09
2022-12-15T12:42:07.334Z,94508.75
2022-12-15T12:44:36.098Z,94509.88
2022-12-15T12:47:08.787Z,94505.41
2022-12-15T12:49:53.550Z,94511.50
2022-12-15T12:52:22.515Z,94503.09
2022-12-15T12:55:08.029Z,94503.94
2022-12-15T12:57:37.179Z,94496.94
2022-12-15T13:00:12.865Z,94488.28
2022-12-15T13:02:40.842Z,94474.72
2022-12-15T13:05:43.120Z,94474.16
2022-12-15T13:08:09.813Z,94451.22
2022-12-15T13:10:43.833Z,94449.69
2022-12-15T13:13:27.415Z,94455.09
2022-12-15T13:16:12.163Z,94452.00
2022-12-15T13:18:57.494Z,94454.38
2022-12-15T13:21:42.453Z,94445.84
2022-12-15T13:24:35.537Z,94443.59
2022-12-15T13:27:12.362Z,94451.31
2022-12-15T13:29:58.851Z,94456.63
2022-12-15T13:32:34.535Z,94457.13
2022-12-15T13:35:13.242Z,94460.84
2022-12-15T13:37:59.417Z,94454.69
2022-12-15T13:40:33.078Z,94451.53
2022-12-15T13:43:05.607Z,94442.47
2022-12-15T13:45:50.591Z,94445.09
2022-12-15T13:48:25.449Z,94440.03
2022-12-15T13:51:02.442Z,94440.03
2022-12-15T13:53:31.656Z,94433.16
2022-12-15T13:56:17.238Z,94425.31
2022-12-15T13:58:46.130Z,94419.84
2022-12-15T14:01:28.593Z,94416.88
2022-12-15T14:04:16.924Z,94415.34
2022-12-15T14:06:48.492Z,94413.03
2022-12-15T14:09:20.230Z,94421.75
2022-12-15T14:11:53.253Z,94422.81
2022-12-15T14:14:23.058Z,94420.13
2022-12-15T14:16:54.525Z,94413.28
2022-12-15T14:19:21.150Z,94420.41
2022-12-15T14:21:50.740Z,94398.09
2022-12-15T14:24:39.867Z,94402.59
2022-12-15T14:27:07.248Z,94405.66
2022-12-15T14:29:33.660Z,94407.44
2022-12-15T14:32:00.751Z,94395.97
2022-12-15T14:34:33.154Z,94398.78
2022-12-15T14:37:02.201Z,94395.97
2022-12-15T14:39:34.830Z,94393.88
2022-12-15T14:42:01.947Z,94387.06
2022-12-15T14:44:38.111Z,94384.47
2022-12-15T14:47:07.420Z,94388.41
2022-12-15T14:49:42.969Z,94389.69
2022-12-15T14:52:25.170Z,94392.88
2022-12-15T14:54:59.623Z,94398.56
2022-12-15T14:57:28.084Z,94400.00
2022-12-15T14:59:54.691Z,94399.25
2022-12-15T15:02:23.013Z,94398.47
2022-12-15T15:04:56.554Z,94399.88
2022-12-15T15:07:23.944Z,94405.94
2022-12-15T15:09:50.484Z,94408.47
2022-12-15T15:12:21.250Z,94406.31
2022-12-15T15:15:05.785Z,94410.72
2022-12-15T15:17:36.768Z,94420.03
2022-12-15T15:20:15.524Z,94412.84
2022-12-15T15:22:43.093Z,94412.72
2022-12-15T15:25:25.301Z,94416.97
2022-12-15T15:27:51.751Z,94414.56
2022-12-15T15:30:20.720Z,94416.88
2022-12-15T15:32:51.505Z,94426.53
2022-12-15T15:35:18.979Z,94436.00
2022-12-15T15:37:45.549Z,94430.19
2022-12-15T15:40:15.969Z,94428.09
2022-12-15T15:42:43.079Z,94427.28
2022-12-15T15:45:13.543Z,94432.09
2022-12-15T15:47:41.083Z,94421.31
2022-12-15T15:50:12.540Z,94412.00
2022-12-15T15:52:39.033Z,94415.47
2022-12-15T15:55:05.837Z,94411.84
2022-12-15T15:57:32.211Z,94415.06
2022-12-15T15:59:58.624Z,94411.19
2022-12-15T16:02:25.210Z,94417.84
2022-12-15T16:04:51.883Z,94411.78
2022-12-15T16:07:27.421Z,94410.47
2022-12-15T16:09:54.438Z,94408.78
2022-12-15T16:12:29.210Z,94410.47
2022-12-15T16:14:56.272Z,94411.91
2022-12-15T16:17:24.273Z,94416.31
2022-12-15T16:19:50.790Z,94407.28
2022-12-15T16:22:19.040Z,94407.56
2022-12-15T16:24:46.060Z,94414.34
2022-12-15T16:27:13.247Z,94416.38
2022-12-15T16:29:39.941Z,94416.56
2022-12-15T16:32:07.136Z,94415.53
2022-12-15T16:34:33.617Z,94413.81
2022-12-15T16:36:59.993Z,94413.75
2022-12-15T16:39:33.668Z,94415.66
2022-12-15T16:42:00.687Z,94410.44
2022-12-15T16:44:29.312Z,94411.06
2022-12-15T16:46:56.911Z,94412.00
2022-12-15T16:49:23.572Z,94411.91
2022-12-15T16:51:51.301Z,94417.03
2022-12-15T16:54:23.175Z,94408.53
2022-12-15T16:56:49.655Z,94403.47
2022-12-15T16:59:32.502Z,94397.03
2022-12-15T17:02:00.091Z,94394.69
2022-12-15T17:04:26.757Z,94398.50
2022-12-15T17:06:53.260Z,94394.28
2022-12-15T17:09:23.604Z,94386.72
2022-12-15T17:11:50.581Z,94388.00
2022-12-15T17:14:17.051Z,94387.50
2022-12-15T17:16:43.549Z,94388.72
2022-12-15T17:19:10.040Z,94378.69
2022-12-15T17:21:42.301Z,94373.47
2022-12-15T17:24:12.179Z,94373.97
2022-12-15T17:26:38.932Z,94369.44
2022-12-15T17:29:12.982Z,94367.09
2022-12-15T17:31:39.517Z,94361.28
2022-12-15T17:34:26.245Z,94357.91
2022-12-15T17:36:53.002Z,94356.97
2022-12-15T17:39:20.866Z,94358.25
2022-12-15T17:42:04.372Z,94371.00
2022-12-15T17:44:34.148Z,94367.72
2022-12-15T17:47:03.500Z,94377.63
2022-12-15T17:49:35.017Z,94380.03
2022-12-15T17:52:03.110Z,94371.00
2022-12-15T17:54:29.708Z,94375.00
2022-12-15T17:56:56.083Z,94372.69
2022-12-15T17:59:22.748Z,94367.41
2022-12-15T18:01:49.419Z,94375.94
2022-12-15T18:04:15.919Z,94364.28
2022-12-15T18:06:44.748Z,94356.59
2022-12-15T18:09:14.421Z,94360.63
2022-12-15T18:11:40.914Z,94354.81
2022-12-15T18:14:14.763Z,94359.16
2022-12-15T18:16:41.438Z,94361.97
2022-12-15T18:19:08.187Z,94355.84
2022-12-15T18:21:34.743Z,94362.25
2022-12-15T18:24:01.467Z,94363.66
2022-12-15T18:26:27.942Z,94358.94
2022-12-15T18:28:54.489Z,94351.31
2022-12-15T18:31:27.871Z,94350.25
2022-12-15T18:34:00.961Z,94350.53
2022-12-15T18:36:30.650Z,94342.03
2022-12-15T18:38:57.025Z,94343.59
2022-12-15T18:41:23.465Z,94339.25
2022-12-15T18:43:50.154Z,94331.00
2022-12-15T18:46:17.083Z,94331.00
2022-12-15T18:48:43.660Z,94324.94
2022-12-15T18:51:19.298Z,94331.47
2022-12-15T18:53:46.225Z,94336.97
2022-12-15T18:56:14.234Z,94340.25
2022-12-15T18:58:40.668Z,94332.38
2022-12-15T19:01:07.824Z,94324.75
2022-12-15T19:03:35.408Z,94314.00
2022-12-15T19:06:10.683Z,94321.88
2022-12-15T19:08:38.837Z,94316.31
2022-12-15T19:11:07.599Z,94312.88
2022-12-15T19:13:36.214Z,94306.66
2022-12-15T19:16:04.644Z,94313.59
2022-12-15T19:18:49.804Z,94305.56
2022-12-15T19:21:39.717Z,94309.28
2022-12-15T19:24:10.209Z,94308.41
2022-12-15T19:26:36.774Z,94304.59
2022-12-15T19:29:11.766Z,94312.97
2022-12-15T19:31:38.230Z,94309.75
2022-12-15T19:34:04.781Z,94322.72
2022-12-15T19:36:35.108Z,94312.88
2022-12-15T19:39:04.411Z,94316.38
2022-12-15T19:41:31.851Z,94304.06
2022-12-15T19:43:58.237Z,94309.25
2022-12-15T19:46:24.878Z,94305.69
2022-12-15T19:48:51.331Z,94308.91
2022-12-15T19:51:19.015Z,94310.28
2022-12-15T19:53:46.160Z,94311.88
2022-12-15T19:56:22.687Z,94306.47
2022-12-15T19:58:49.280Z,94297.09
2022-12-15T20:01:17.755Z,94309.47
2022-12-15T20:03:45.743Z,94308.22
2022-12-15T20:06:25.859Z,94302.25
2022-12-15T20:08:54.770Z,94305.97
2022-12-15T20:11:26.344Z,94307.34
2022-12-15T20:13:53.490Z,94309.66
2022-12-15T20:16:20.895Z,94307.63
2022-12-15T20:18:48.315Z,94311.19
2022-12-15T20:21:20.602Z,94310.63
2022-12-15T20:23:51.295Z,94314.38
2022-12-15T20:26:17.911Z,94313.34
2022-12-15T20:28:44.476Z,94311.34
2022-12-15T20:31:15.252Z,94313.66
2022-12-15T20:33:42.841Z,94306.44
2022-12-15T20:36:12.523Z,94319.06
2022-12-15T20:38:38.927Z,94309.47
2022-12-15T20:41:05.492Z,94305.44
2022-12-15T20:43:33.653Z,94305.28
2022-12-15T20:46:02.930Z,94308.41
2022-12-15T20:48:30.052Z,94309.16
2022-12-15T20:50:56.498Z,94297.69
2022-12-15T20:53:24.805Z,94297.25
2022-12-15T20:55:52.131Z,94302.44
2022-12-15T20:58:19.005Z,94296.06
2022-12-15T21:00:46.391Z,94301.34
2022-12-15T21:03:19.013Z,94301.91
2022-12-15T21:05:45.900Z,94304.16
2022-12-15T21:08:21.150Z,94303.06
2022-12-15T21:10:47.674Z,94300.69
2022-12-15T21:13:17.922Z,94300.25
2022-12-15T21:15:44.571Z,94299.66
2022-12-15T21:19:10.980Z,94301.81
2022-12-15T21:20:58.827Z,94297.13
2022-12-15T21:23:27.384Z,94308.50
2022-12-15T21:25:55.883Z,94302.13
2022-12-15T21:28:22.975Z,94299.56
2022-12-15T21:30:49.668Z,94302.91
2022-12-15T21:33:16.536Z,94305.63
2022-12-15T21:35:45.912Z,94303.25
2022-12-15T21:38:25.879Z,94303.91
2022-12-15T21:40:59.182Z,94299.28
2022-12-15T21:43:27.698Z,94299.91
2022-12-15T21:45:54.110Z,94303.03
2022-12-15T21:48:40.344Z,94304.59
2022-12-15T21:51:10.295Z,94307.00
2022-12-15T21:53:36.708Z,94312.66
2022-12-15T21:56:03.139Z,94319.50
2022-12-15T21:58:29.761Z,94318.91
2022-12-15T22:00:56.815Z,94317.06
2022-12-15T22:03:23.410Z,94323.03
2022-12-15T22:05:49.868Z,94318.84
2022-12-15T22:08:20.754Z,94321.28
2022-12-15T22:10:48.698Z,94328.16
2022-12-15T22:13:17.560Z,94323.25
2022-12-15T22:15:44.153Z,94321.41
2022-12-15T22:18:11.814Z,94319.06
2022-12-15T22:20:38.223Z,94325.13
2022-12-15T22:23:04.602Z,94320.88
2022-12-15T22:25:31.097Z,94326.06
2022-12-15T22:27:57.653Z,94325.88
2022-12-15T22:30:25.088Z,94336.59
2022-12-15T22:32:52.382Z,94326.94
2022-12-15T22:35:24.514Z,94327.31
2022-12-15T22:37:53.832Z,94331.56
2022-12-15T22:40:20.959Z,94337.97
2022-12-15T22:42:50.836Z,94341.25
2022-12-15T22:45:19.088Z,94339.81
2022-12-15T22:47:47.121Z,94338.09
2022-12-15T22:50:18.696Z,94333.13
2022-12-15T22:52:45.725Z,94343.38
2022-12-15T22:55:16.401Z,94349.16
2022-12-15T22:57:44.886Z,94354.28
2022-12-15T23:00:11.632Z,94349.34
2022-12-15T23:02:39.590Z,94349.69
2022-12-15T23:05:06.485Z,94343.44
2022-12-15T23:07:33.646Z,94342.25
2022-12-15T23:10:18.851Z,94342.38
2022-12-15T23:12:45.442Z,94350.47
2022-12-15T23:15:30.604Z,94354.81
2022-12-15T23:17:57.009Z,94349.88
2022-12-15T23:20:23.447Z,94352.19
2022-12-15T23:22:49.864Z,94352.84
2022-12-15T23:25:16.278Z,94347.16
2022-12-15T23:27:42.681Z,94354.22
2022-12-15T23:30:09.327Z,94357.06
2022-12-15T23:32:38.591Z,94358.63
2022-12-15T23:35:05.773Z,94354.94
2022-12-15T23:37:32.340Z,94345.59
2022-12-15T23:39:58.810Z,94354.16
2022-12-15T23:42:25.292Z,94355.59
2022-12-15T23:44:51.748Z,94355.53
2022-12-15T23:47:18.439Z,94364.41
2022-12-15T23:49:44.951Z,94363.53
2022-12-15T23:52:11.407Z,94370.84
2022-12-15T23:54:38.211Z,94368.06
2022-12-15T23:57:04.628Z,94359.41
2022-12-15T23:59:31.112Z,94374.53
